Weather

DAILY 7 DAY TOTAL
onrain

Note: Some stations are located near irrigated fields and may also report irrigation

Alliston Mount Forest Blyth Guelph Grand Bend Strathroy Woodstock Belmont Simcoe Leamington Chatham West Lorne






Leamington-Base - Historical Weather Data
Date Max Temp (°C) Min Temp (°C) Avg Temp (°C) Rain (mm) 7Day Rain(mm) Total Rain(mm) Avg RH (%)
9/18/2017 25.9 16.7 19.9 3.4 3.4 379.4 91.3
9/17/2017 31.7 13.4 21.2 0.0 0.0 376.0 80.4
9/16/2017 30.4 12.5 20.2 0.0 0.0 376.0 82.0
9/15/2017 29.7 11.9 19.3 0.0 0.0 376.0 82.2
9/14/2017 26.9 13.6 19.1 0.0 0.0 376.0 84.0
9/13/2017 26.7 11.5 18.9 0.0 7.2 376.0 84.5
9/12/2017 27.4 8.9 16.6 0.0 7.2 376.0 81.4
9/11/2017 26.1 7.6 15.5 0.0 8.2 376.0 79.0
9/10/2017 23.7 5.8 13.4 0.0 34.6 376.0 79.9
9/9/2017 22.7 6.0 12.5 0.0 35.0 376.0 73.3
9/8/2017 19.8 8.6 13.8 0.0 44.0 376.0 77.4
9/7/2017 20.6 9.5 13.4 7.2 44.0 376.0 83.4
9/6/2017 21.7 9.0 14.2 0.0 36.8 368.8 81.0
9/5/2017 23.3 13.3 17.0 1.0 36.8 368.8 82.7
9/4/2017 28.1 14.2 20.3 26.4 50.2 367.8 84.3
9/3/2017 25.6 13.0 17.7 0.4 34.8 341.4 81.3
9/2/2017 22.8 9.3 14.8 9.0 34.4 341.0 83.1
9/1/2017 20.7 7.2 13.4 0.0 25.4 332.0 70.0
8/31/2017 21.4 11.7 17.9 0.0 25.4 332.0 74.8
8/30/2017 28.9 13.8 20.4 0.0 25.4 332.0 83.9
8/29/2017 26.0 15.7 19.4 14.4 25.4 332.0 92.0
8/28/2017 25.3 13.9 19.0 11.0 12.0 317.6 93.3
8/27/2017 29.5 9.6 18.1 0.0 1.0 306.6 75.3
8/26/2017 25.6 6.9 16.0 0.0 1.0 306.6 70.3
8/25/2017 24.3 8.6 15.6 0.0 1.0 306.6 71.2
8/24/2017 22.5 11.5 16.2 0.0 1.0 306.6 71.7
8/23/2017 24.8 12.3 18.6 0.0 22.4 306.6 69.6
8/22/2017 28.4 17.1 23.6 1.0 22.4 306.6 79.0
8/21/2017 33.0 18.6 25.1 0.0 21.4 305.6 82.6
8/20/2017 31.8 13.7 22.0 0.0 21.4 305.6 79.1
8/19/2017 27.3 15.4 20.7 0.0 21.4 305.6 77.2
8/18/2017 26.8 19.5 23.1 0.0 21.4 305.6 74.6
8/17/2017 28.8 19.0 23.3 21.4 37.6 305.6 89.9
8/16/2017 31.2 12.9 21.9 0.0 16.2 284.2 71.9
8/15/2017 29.2 17.2 22.1 0.0 16.2 284.2 81.4
8/14/2017 31.4 12.6 21.5 0.0 16.2 284.2 77.2
8/13/2017 29.1 11.9 19.7 0.0 16.2 284.2 78.1
8/12/2017 27.2 15.3 19.9 0.0 16.2 284.2 81.6
8/11/2017 30.7 15.8 21.8 16.2 16.2 284.2 88.6
8/10/2017 32.2 13.7 22.1 0.0 0.2 268.0 72.1
8/9/2017 30.9 14.6 22.1 0.0 7.6 268.0 67.6
8/8/2017 29.1 10.6 20.5 0.0 7.8 268.0 70.9
8/7/2017 27.3 14.4 20.1 0.0 7.8 268.0 77.4
8/6/2017 27.9 12.3 19.7 0.0 7.8 268.0 79.1
8/5/2017 25.4 13.6 19.0 0.0 7.8 268.0 63.3
8/4/2017 25.1 16.8 20.7 0.2 7.8 268.0 79.0
8/3/2017 31.9 16.3 23.4 7.4 7.6 267.8 83.3
8/2/2017 33.4 17.6 23.5 0.2 0.2 260.4 76.0
8/1/2017 33.5 15.3 24.6 0.0 0.0 260.2 63.2
7/31/2017 32.6 14.7 23.7 0.0 0.0 260.2 68.7
7/30/2017 31.8 15.8 23.0 0.0 0.0 260.2 64.6
7/29/2017 30.4 13.0 21.1 0.0 0.0 260.2 60.9
7/28/2017 26.7 16.1 19.5 0.0 3.8 260.2 80.7
7/27/2017 32.4 17.5 24.0 0.0 3.8 260.2 77.0
7/26/2017 28.7 12.4 20.8 0.0 3.8 260.2 79.1
7/25/2017 28.6 12.5 19.7 0.0 3.8 260.2 75.1
7/24/2017 22.9 14.7 19.3 0.0 3.8 260.2 79.2
7/23/2017 30.5 19.7 23.8 0.0 3.8 260.2 84.3
7/22/2017 31.9 22.2 25.4 3.8 11.8 260.2 87.5
7/21/2017 33.8 21.0 26.4 0.0 8.0 256.4 77.3
7/20/2017 33.0 20.1 26.2 0.0 8.0 256.4 76.3
7/19/2017 33.8 18.4 25.9 0.0 18.0 256.4 73.4
7/18/2017 30.8 14.0 22.9 0.0 31.6 256.4 75.3
7/17/2017 28.5 15.5 20.9 0.0 31.6 256.4 78.2
7/16/2017 30.5 16.4 22.1 8.0 41.2 256.4 82.7
7/15/2017 28.5 16.4 21.4 0.0 33.2 248.4 76.9
7/14/2017 29.2 18.0 23.6 0.0 33.2 248.4 75.5
7/13/2017 28.2 21.2 24.6 10.0 58.8 248.4 90.0
7/12/2017 29.8 21.6 25.0 13.6 48.8 238.4 86.3
7/11/2017 32.1 18.7 24.9 0.0 35.2 224.8 84.3
7/10/2017 27.1 18.2 20.9 9.6 35.2 224.8 86.4
7/9/2017 28.2 13.8 21.6 0.0 27.8 215.2 65.1
7/8/2017 25.4 14.8 20.5 0.0 27.8 215.2 77.0
7/7/2017 28.1 17.6 23.0 25.6 28.0 215.2 86.5
7/6/2017 30.0 13.7 22.5 0.0 30.0 189.6 71.2
7/5/2017 28.4 14.1 21.9 0.0 30.0 189.6 64.0
7/4/2017 26.0 12.1 20.2 0.0 30.0 189.6 64.8
7/3/2017 26.8 16.7 22.0 2.2 30.0 189.6 73.3
7/2/2017 29.5 17.9 23.9 0.0 27.8 187.4 63.5
7/1/2017 29.4 19.3 23.5 0.2 27.8 187.4 79.7
6/30/2017 30.4 18.6 22.1 27.6 27.6 187.2 90.0
6/29/2017 30.8 20.3 24.2 0.0 23.4 159.6 66.3
6/28/2017 26.8 11.6 20.7 0.0 27.0 159.6 57.6
6/27/2017 24.1 10.9 17.0 0.0 27.6 159.6 59.1
6/26/2017 23.3 11.9 17.7 0.0 27.6 159.6 56.7
6/25/2017 23.3 12.6 18.1 0.0 29.2 159.6 59.3
6/24/2017 26.5 17.3 21.4 0.0 38.4 159.6 57.6
6/23/2017 25.7 19.3 22.6 23.4 38.4 159.6 88.1
6/22/2017 31.6 14.3 22.2 3.6 15.0 136.2 80.9
6/21/2017 26.0 13.7 19.8 0.6 11.6 132.6 65.9
6/20/2017 27.6 15.0 20.1 0.0 11.0 132.0 61.8
6/19/2017 28.0 16.6 21.2 1.6 11.0 132.0 69.8
6/18/2017 31.0 20.5 25.7 9.2 9.4 130.4 66.6
6/17/2017 33.8 19.3 26.7 0.0 0.2 121.2 66.0
6/16/2017 33.0 17.3 25.4 0.0 0.2 121.2 67.0
6/15/2017 29.5 18.4 24.0 0.2 0.2 121.2 73.7
6/14/2017 25.3 18.7 21.6 0.0 0.0 121.0 72.7
6/13/2017 33.9 20.4 26.4 0.0 0.0 121.0 61.8
6/12/2017 33.8 20.9 27.2 0.0 0.0 121.0 57.0
6/11/2017 32.7 19.2 26.0 0.0 0.0 121.0 53.8
6/10/2017 31.9 16.1 24.1 0.0 0.0 121.0 58.9
6/9/2017 25.1 12.5 19.0 0.0 0.0 121.0 69.0
6/8/2017 25.3 8.8 17.1 0.0 0.0 121.0 63.5
6/7/2017 19.0 10.6 15.0 0.0 0.0 121.0 69.3
6/6/2017 20.0 11.7 15.7 0.0 0.0 121.0 70.8
6/5/2017 21.0 13.5 16.9 0.0 0.0 121.0 76.7
6/4/2017 30.5 17.7 22.8 0.0 0.4 121.0 65.6
6/3/2017 24.4 11.5 18.9 0.0 11.4 121.0 53.9
6/2/2017 24.2 11.2 18.0 0.0 11.4 121.0 58.3
6/1/2017 23.5 10.8 16.5 0.0 11.4 121.0 63.5
5/31/2017 25.4 12.7 19.3 0.0 24.4 121.0 55.3
5/30/2017 25.4 13.9 19.7 0.0 44.4 121.0 59.9
5/29/2017 27.3 14.2 20.1 0.4 44.4 121.0 70.1
5/28/2017 21.4 12.4 16.5 11.0 44.0 120.6 80.3
5/27/2017 21.6 12.5 17.5 0.0 39.2 109.6 71.6
5/26/2017 21.5 12.7 15.7 0.0 40.8 109.6 82.2
5/25/2017 15.1 12.9 14.0 13.0 40.8 109.6 98.6
5/24/2017 16.0 11.1 13.8 20.0 27.8 96.6 88.1
5/23/2017 24.9 12.1 18.2 0.0 7.8 76.6 58.8
5/22/2017 21.6 11.4 16.1 0.0 10.0 76.6 61.9
5/21/2017 24.1 12.1 17.5 6.2 10.0 76.6 85.5
5/20/2017 15.2 8.4 12.0 1.6 3.8 70.4 67.7
5/19/2017 21.0 7.9 11.3 0.0 2.2 68.8 71.4
5/18/2017 31.0 19.9 25.1 0.0 2.2 68.8 53.9
5/17/2017 31.6 18.5 24.2 0.0 3.6 68.8 55.6
5/16/2017 29.3 9.1 18.9 2.2 3.6 68.8 59.6
5/15/2017 21.5 2.7 13.2 0.0 1.4 66.6 60.2
5/14/2017 19.5 7.6 13.0 0.0 1.4 66.6 66.6
5/13/2017 22.0 5.7 14.1 0.0 1.4 66.6 69.2
5/12/2017 16.6 4.9 10.8 0.0 1.4 66.6 73.5
5/11/2017 16.1 7.0 10.9 1.4 19.6 66.6 66.1
5/10/2017 15.1 3.9 10.2 0.0 54.2 65.2 63.4
5/9/2017 14.8 -0.3 8.4 0.0 54.2 65.2 56.0
5/8/2017 14.6 0.6 7.6 0.0 55.0 65.2 57.6
5/7/2017 12.8 3.6 8.3 0.0 65.2 65.2 52.4
5/6/2017 13.2 6.3 8.7 0.0 74.2 65.2 74.3
5/5/2017 7.0 6.0 6.5 18.2 74.8 65.2 96.3
5/4/2017 8.5 6.7 7.5 36.0 57.2 47.0 86.6
5/3/2017 14.9 4.2 9.4 0.0 22.2 11.0 66.0
5/2/2017 11.9 6.8 9.1 0.8 22.2 11.0 74.3
5/1/2017 20.4 8.0 13.1 10.2 21.8 10.2 86.4